sensor_id;sensor_type;location;lat;lon;timestamp;P1;durP1;ratioP1;P2;durP2;ratioP2
34144;SDS011;69555;53.014;8.886;2023-07-31T00:01:13;8.63;;;3.20;;
34144;SDS011;69555;53.014;8.886;2023-07-31T00:03:40;11.77;;;3.30;;
34144;SDS011;69555;53.014;8.886;2023-07-31T00:06:07;16.42;;;4.03;;
34144;SDS011;69555;53.014;8.886;2023-07-31T00:08:34;10.82;;;3.15;;
34144;SDS011;69555;53.014;8.886;2023-07-31T00:10:59;8.93;;;2.85;;
34144;SDS011;69555;53.014;8.886;2023-07-31T00:13:26;12.93;;;3.58;;
34144;SDS011;69555;53.014;8.886;2023-07-31T00:15:53;7.97;;;3.03;;
34144;SDS011;69555;53.014;8.886;2023-07-31T00:18:18;9.73;;;3.03;;
34144;SDS011;69555;53.014;8.886;2023-07-31T00:20:44;7.45;;;3.10;;
34144;SDS011;69555;53.014;8.886;2023-07-31T00:23:10;15.35;;;3.25;;
34144;SDS011;69555;53.014;8.886;2023-07-31T00:25:36;10.18;;;2.92;;
34144;SDS011;69555;53.014;8.886;2023-07-31T00:28:02;9.70;;;3.40;;
34144;SDS011;69555;53.014;8.886;2023-07-31T00:30:29;5.00;;;2.38;;
34144;SDS011;69555;53.014;8.886;2023-07-31T00:32:56;3.92;;;2.33;;
34144;SDS011;69555;53.014;8.886;2023-07-31T00:35:21;9.48;;;2.97;;
34144;SDS011;69555;53.014;8.886;2023-07-31T00:37:48;10.35;;;2.85;;
34144;SDS011;69555;53.014;8.886;2023-07-31T00:40:15;11.80;;;3.00;;
34144;SDS011;69555;53.014;8.886;2023-07-31T00:42:42;9.25;;;2.83;;
34144;SDS011;69555;53.014;8.886;2023-07-31T00:45:09;6.00;;;2.55;;
34144;SDS011;69555;53.014;8.886;2023-07-31T00:47:35;5.55;;;2.60;;
34144;SDS011;69555;53.014;8.886;2023-07-31T00:50:01;8.57;;;2.15;;
34144;SDS011;69555;53.014;8.886;2023-07-31T00:52:28;3.78;;;2.15;;
34144;SDS011;69555;53.014;8.886;2023-07-31T00:54:53;6.65;;;2.20;;
34144;SDS011;69555;53.014;8.886;2023-07-31T00:57:20;7.35;;;2.83;;
34144;SDS011;69555;53.014;8.886;2023-07-31T00:59:46;7.57;;;2.70;;
34144;SDS011;69555;53.014;8.886;2023-07-31T01:02:13;5.85;;;1.75;;
34144;SDS011;69555;53.014;8.886;2023-07-31T01:04:42;6.55;;;2.13;;
34144;SDS011;69555;53.014;8.886;2023-07-31T01:07:18;6.43;;;2.83;;
34144;SDS011;69555;53.014;8.886;2023-07-31T01:12:44;3.53;;;2.05;;
34144;SDS011;69555;53.014;8.886;2023-07-31T01:15:13;5.60;;;2.40;;
34144;SDS011;69555;53.014;8.886;2023-07-31T01:17:42;6.25;;;3.00;;
34144;SDS011;69555;53.014;8.886;2023-07-31T01:20:10;3.97;;;2.25;;
34144;SDS011;69555;53.014;8.886;2023-07-31T01:29:08;6.90;;;2.83;;
34144;SDS011;69555;53.014;8.886;2023-07-31T01:31:41;5.10;;;2.17;;
34144;SDS011;69555;53.014;8.886;2023-07-31T01:34:09;6.90;;;2.22;;
34144;SDS011;69555;53.014;8.886;2023-07-31T01:36:37;5.82;;;2.60;;
34144;SDS011;69555;53.014;8.886;2023-07-31T01:39:04;3.95;;;2.10;;
34144;SDS011;69555;53.014;8.886;2023-07-31T01:41:30;7.50;;;2.53;;
34144;SDS011;69555;53.014;8.886;2023-07-31T01:43:57;6.47;;;1.83;;
34144;SDS011;69555;53.014;8.886;2023-07-31T01:46:23;4.85;;;2.05;;
34144;SDS011;69555;53.014;8.886;2023-07-31T01:48:50;5.63;;;2.15;;
34144;SDS011;69555;53.014;8.886;2023-07-31T01:51:16;3.88;;;1.70;;
34144;SDS011;69555;53.014;8.886;2023-07-31T01:53:43;4.15;;;2.13;;
34144;SDS011;69555;53.014;8.886;2023-07-31T01:56:10;3.55;;;1.90;;
34144;SDS011;69555;53.014;8.886;2023-07-31T01:58:36;3.35;;;2.20;;
34144;SDS011;69555;53.014;8.886;2023-07-31T02:01:02;5.53;;;2.17;;
34144;SDS011;69555;53.014;8.886;2023-07-31T02:03:28;7.13;;;2.50;;
34144;SDS011;69555;53.014;8.886;2023-07-31T02:05:54;3.55;;;2.25;;
34144;SDS011;69555;53.014;8.886;2023-07-31T02:08:19;4.38;;;2.08;;
34144;SDS011;69555;53.014;8.886;2023-07-31T02:10:46;5.47;;;2.83;;
34144;SDS011;69555;53.014;8.886;2023-07-31T02:13:11;5.43;;;2.40;;
34144;SDS011;69555;53.014;8.886;2023-07-31T02:15:37;6.50;;;3.20;;
34144;SDS011;69555;53.014;8.886;2023-07-31T02:18:03;5.40;;;2.45;;
34144;SDS011;69555;53.014;8.886;2023-07-31T02:20:33;3.42;;;2.67;;
34144;SDS011;69555;53.014;8.886;2023-07-31T02:23:01;4.93;;;2.90;;
34144;SDS011;69555;53.014;8.886;2023-07-31T02:25:27;4.25;;;2.42;;
34144;SDS011;69555;53.014;8.886;2023-07-31T02:27:55;7.32;;;3.13;;
34144;SDS011;69555;53.014;8.886;2023-07-31T02:30:22;4.38;;;2.55;;
34144;SDS011;69555;53.014;8.886;2023-07-31T02:32:49;7.15;;;3.38;;
34144;SDS011;69555;53.014;8.886;2023-07-31T02:35:16;3.92;;;2.63;;
34144;SDS011;69555;53.014;8.886;2023-07-31T02:37:42;4.07;;;2.80;;
34144;SDS011;69555;53.014;8.886;2023-07-31T02:40:08;7.22;;;3.15;;
34144;SDS011;69555;53.014;8.886;2023-07-31T02:42:35;6.00;;;3.10;;
34144;SDS011;69555;53.014;8.886;2023-07-31T02:45:02;4.32;;;2.97;;
34144;SDS011;69555;53.014;8.886;2023-07-31T02:47:29;5.45;;;2.88;;
34144;SDS011;69555;53.014;8.886;2023-07-31T02:49:55;4.97;;;2.92;;
34144;SDS011;69555;53.014;8.886;2023-07-31T02:52:22;3.85;;;2.90;;
34144;SDS011;69555;53.014;8.886;2023-07-31T02:54:49;5.70;;;2.78;;
34144;SDS011;69555;53.014;8.886;2023-07-31T02:57:15;5.45;;;3.20;;
34144;SDS011;69555;53.014;8.886;2023-07-31T02:59:42;8.98;;;3.08;;
34144;SDS011;69555;53.014;8.886;2023-07-31T03:02:09;4.70;;;3.08;;
34144;SDS011;69555;53.014;8.886;2023-07-31T03:04:36;7.38;;;2.88;;
34144;SDS011;69555;53.014;8.886;2023-07-31T03:07:02;4.68;;;3.03;;
34144;SDS011;69555;53.014;8.886;2023-07-31T03:09:29;5.38;;;2.90;;
34144;SDS011;69555;53.014;8.886;2023-07-31T03:11:56;7.97;;;2.80;;
34144;SDS011;69555;53.014;8.886;2023-07-31T03:14:21;6.13;;;2.80;;
34144;SDS011;69555;53.014;8.886;2023-07-31T03:16:48;4.95;;;3.05;;
34144;SDS011;69555;53.014;8.886;2023-07-31T03:19:15;4.63;;;2.70;;
34144;SDS011;69555;53.014;8.886;2023-07-31T03:21:41;4.63;;;3.15;;
34144;SDS011;69555;53.014;8.886;2023-07-31T03:24:08;5.00;;;3.00;;
34144;SDS011;69555;53.014;8.886;2023-07-31T03:26:33;5.32;;;3.10;;
34144;SDS011;69555;53.014;8.886;2023-07-31T03:29:01;3.63;;;2.60;;
34144;SDS011;69555;53.014;8.886;2023-07-31T03:31:27;7.03;;;2.55;;
34144;SDS011;69555;53.014;8.886;2023-07-31T03:33:54;3.25;;;2.40;;
34144;SDS011;69555;53.014;8.886;2023-07-31T03:36:21;4.55;;;2.50;;
34144;SDS011;69555;53.014;8.886;2023-07-31T03:38:47;4.60;;;2.70;;
34144;SDS011;69555;53.014;8.886;2023-07-31T03:41:14;6.47;;;2.90;;
34144;SDS011;69555;53.014;8.886;2023-07-31T03:43:40;2.92;;;2.55;;
34144;SDS011;69555;53.014;8.886;2023-07-31T03:46:07;4.45;;;2.67;;
34144;SDS011;69555;53.014;8.886;2023-07-31T03:48:33;4.45;;;2.50;;
34144;SDS011;69555;53.014;8.886;2023-07-31T03:51:00;5.32;;;2.67;;
34144;SDS011;69555;53.014;8.886;2023-07-31T03:53:26;3.95;;;3.08;;
34144;SDS011;69555;53.014;8.886;2023-07-31T03:55:53;4.82;;;3.03;;
34144;SDS011;69555;53.014;8.886;2023-07-31T03:58:19;4.97;;;2.70;;
34144;SDS011;69555;53.014;8.886;2023-07-31T04:00:46;4.38;;;3.45;;
34144;SDS011;69555;53.014;8.886;2023-07-31T04:03:13;4.68;;;3.35;;
34144;SDS011;69555;53.014;8.886;2023-07-31T04:05:40;7.32;;;3.45;;
34144;SDS011;69555;53.014;8.886;2023-07-31T04:08:06;4.97;;;3.38;;
34144;SDS011;69555;53.014;8.886;2023-07-31T04:10:33;5.40;;;4.07;;
34144;SDS011;69555;53.014;8.886;2023-07-31T04:13:00;5.18;;;4.10;;
34144;SDS011;69555;53.014;8.886;2023-07-31T04:15:26;7.22;;;4.00;;
34144;SDS011;69555;53.014;8.886;2023-07-31T04:17:52;6.22;;;4.57;;
34144;SDS011;69555;53.014;8.886;2023-07-31T04:20:18;11.63;;;4.90;;
34144;SDS011;69555;53.014;8.886;2023-07-31T04:22:45;6.97;;;4.72;;
34144;SDS011;69555;53.014;8.886;2023-07-31T04:25:12;8.93;;;5.25;;
34144;SDS011;69555;53.014;8.886;2023-07-31T04:27:38;6.93;;;5.40;;
34144;SDS011;69555;53.014;8.886;2023-07-31T04:30:04;7.05;;;5.85;;
34144;SDS011;69555;53.014;8.886;2023-07-31T04:32:31;7.80;;;4.63;;
34144;SDS011;69555;53.014;8.886;2023-07-31T04:34:58;5.97;;;5.38;;
34144;SDS011;69555;53.014;8.886;2023-07-31T04:37:25;6.15;;;4.60;;
34144;SDS011;69555;53.014;8.886;2023-07-31T04:39:50;5.60;;;4.22;;
34144;SDS011;69555;53.014;8.886;2023-07-31T04:42:17;6.18;;;3.70;;
34144;SDS011;69555;53.014;8.886;2023-07-31T04:44:43;5.00;;;3.80;;
34144;SDS011;69555;53.014;8.886;2023-07-31T04:47:10;5.47;;;3.95;;
34144;SDS011;69555;53.014;8.886;2023-07-31T04:49:36;5.68;;;4.05;;
34144;SDS011;69555;53.014;8.886;2023-07-31T04:52:03;4.40;;;2.85;;
34144;SDS011;69555;53.014;8.886;2023-07-31T04:54:30;3.75;;;3.22;;
34144;SDS011;69555;53.014;8.886;2023-07-31T04:56:56;3.88;;;3.10;;
34144;SDS011;69555;53.014;8.886;2023-07-31T04:59:23;4.30;;;2.85;;
34144;SDS011;69555;53.014;8.886;2023-07-31T05:01:50;2.83;;;2.08;;
34144;SDS011;69555;53.014;8.886;2023-07-31T05:04:16;3.72;;;3.00;;
34144;SDS011;69555;53.014;8.886;2023-07-31T05:06:44;4.78;;;2.60;;
34144;SDS011;69555;53.014;8.886;2023-07-31T05:09:10;3.40;;;2.10;;
34144;SDS011;69555;53.014;8.886;2023-07-31T05:11:37;4.20;;;2.15;;
34144;SDS011;69555;53.014;8.886;2023-07-31T05:14:04;3.78;;;2.03;;
34144;SDS011;69555;53.014;8.886;2023-07-31T05:16:30;2.67;;;2.22;;
34144;SDS011;69555;53.014;8.886;2023-07-31T05:18:57;4.00;;;2.10;;
34144;SDS011;69555;53.014;8.886;2023-07-31T05:21:24;2.22;;;2.00;;
34144;SDS011;69555;53.014;8.886;2023-07-31T05:23:50;3.35;;;2.55;;
34144;SDS011;69555;53.014;8.886;2023-07-31T05:26:17;2.53;;;2.33;;
34144;SDS011;69555;53.014;8.886;2023-07-31T05:28:44;3.05;;;2.67;;
34144;SDS011;69555;53.014;8.886;2023-07-31T05:31:10;4.03;;;2.40;;
34144;SDS011;69555;53.014;8.886;2023-07-31T05:33:37;2.90;;;2.38;;
34144;SDS011;69555;53.014;8.886;2023-07-31T05:36:04;7.07;;;2.20;;
34144;SDS011;69555;53.014;8.886;2023-07-31T05:38:30;3.13;;;2.20;;
34144;SDS011;69555;53.014;8.886;2023-07-31T05:40:56;3.30;;;2.25;;
34144;SDS011;69555;53.014;8.886;2023-07-31T05:43:24;3.40;;;2.45;;
34144;SDS011;69555;53.014;8.886;2023-07-31T05:45:50;3.05;;;2.28;;
34144;SDS011;69555;53.014;8.886;2023-07-31T05:48:17;2.78;;;2.55;;
34144;SDS011;69555;53.014;8.886;2023-07-31T05:50:44;6.25;;;2.20;;
34144;SDS011;69555;53.014;8.886;2023-07-31T05:53:10;3.65;;;2.35;;
34144;SDS011;69555;53.014;8.886;2023-07-31T05:55:37;3.00;;;2.10;;
34144;SDS011;69555;53.014;8.886;2023-07-31T05:58:04;4.53;;;2.55;;
34144;SDS011;69555;53.014;8.886;2023-07-31T06:00:31;2.60;;;2.08;;
34144;SDS011;69555;53.014;8.886;2023-07-31T06:02:58;4.68;;;2.20;;
34144;SDS011;69555;53.014;8.886;2023-07-31T06:05:25;2.42;;;2.00;;
34144;SDS011;69555;53.014;8.886;2023-07-31T06:07:52;4.28;;;2.25;;
34144;SDS011;69555;53.014;8.886;2023-07-31T06:10:19;3.20;;;2.13;;
34144;SDS011;69555;53.014;8.886;2023-07-31T06:12:44;7.25;;;2.78;;
34144;SDS011;69555;53.014;8.886;2023-07-31T06:15:11;2.10;;;1.90;;
34144;SDS011;69555;53.014;8.886;2023-07-31T06:17:37;5.05;;;2.60;;
34144;SDS011;69555;53.014;8.886;2023-07-31T06:20:05;4.30;;;2.08;;
34144;SDS011;69555;53.014;8.886;2023-07-31T06:22:33;2.42;;;1.92;;
34144;SDS011;69555;53.014;8.886;2023-07-31T06:24:59;2.30;;;1.90;;
34144;SDS011;69555;53.014;8.886;2023-07-31T06:27:26;4.10;;;1.55;;
34144;SDS011;69555;53.014;8.886;2023-07-31T06:29:52;3.17;;;1.80;;
34144;SDS011;69555;53.014;8.886;2023-07-31T06:32:18;2.35;;;1.38;;
34144;SDS011;69555;53.014;8.886;2023-07-31T06:34:44;2.65;;;1.50;;
34144;SDS011;69555;53.014;8.886;2023-07-31T06:37:11;1.73;;;1.30;;
34144;SDS011;69555;53.014;8.886;2023-07-31T06:39:38;1.88;;;1.40;;
34144;SDS011;69555;53.014;8.886;2023-07-31T06:42:04;1.67;;;1.38;;
34144;SDS011;69555;53.014;8.886;2023-07-31T06:44:30;4.03;;;1.23;;
34144;SDS011;69555;53.014;8.886;2023-07-31T06:46:55;1.95;;;1.08;;
34144;SDS011;69555;53.014;8.886;2023-07-31T06:49:21;2.38;;;0.75;;
34144;SDS011;69555;53.014;8.886;2023-07-31T06:51:46;1.85;;;0.95;;
34144;SDS011;69555;53.014;8.886;2023-07-31T06:54:13;2.15;;;0.80;;
34144;SDS011;69555;53.014;8.886;2023-07-31T06:56:38;1.15;;;0.60;;
34144;SDS011;69555;53.014;8.886;2023-07-31T06:59:04;0.60;;;0.60;;
34144;SDS011;69555;53.014;8.886;2023-07-31T07:01:30;1.25;;;0.70;;
34144;SDS011;69555;53.014;8.886;2023-07-31T07:03:55;1.15;;;0.82;;
34144;SDS011;69555;53.014;8.886;2023-07-31T07:06:22;1.58;;;1.17;;
34144;SDS011;69555;53.014;8.886;2023-07-31T07:08:49;1.90;;;0.82;;
34144;SDS011;69555;53.014;8.886;2023-07-31T07:11:16;1.10;;;0.95;;
34144;SDS011;69555;53.014;8.886;2023-07-31T07:13:43;2.45;;;1.50;;
34144;SDS011;69555;53.014;8.886;2023-07-31T07:16:08;1.90;;;1.08;;
34144;SDS011;69555;53.014;8.886;2023-07-31T07:18:35;2.63;;;1.23;;
34144;SDS011;69555;53.014;8.886;2023-07-31T07:21:00;4.07;;;1.80;;
34144;SDS011;69555;53.014;8.886;2023-07-31T07:23:27;4.35;;;1.63;;
34144;SDS011;69555;53.014;8.886;2023-07-31T07:25:52;6.40;;;2.30;;
34144;SDS011;69555;53.014;8.886;2023-07-31T07:28:18;5.70;;;2.53;;
34144;SDS011;69555;53.014;8.886;2023-07-31T07:30:43;6.10;;;3.25;;
34144;SDS011;69555;53.014;8.886;2023-07-31T07:33:09;6.63;;;3.60;;
34144;SDS011;69555;53.014;8.886;2023-07-31T07:35:34;8.93;;;3.85;;
34144;SDS011;69555;53.014;8.886;2023-07-31T07:38:01;9.75;;;4.30;;
34144;SDS011;69555;53.014;8.886;2023-07-31T07:40:27;6.80;;;4.70;;
34144;SDS011;69555;53.014;8.886;2023-07-31T07:42:53;9.40;;;5.05;;
34144;SDS011;69555;53.014;8.886;2023-07-31T07:45:18;7.88;;;5.03;;
34144;SDS011;69555;53.014;8.886;2023-07-31T07:47:43;10.52;;;5.45;;
34144;SDS011;69555;53.014;8.886;2023-07-31T07:50:09;12.85;;;5.18;;
34144;SDS011;69555;53.014;8.886;2023-07-31T07:52:35;9.43;;;5.57;;
34144;SDS011;69555;53.014;8.886;2023-07-31T07:55:00;13.77;;;6.18;;
34144;SDS011;69555;53.014;8.886;2023-07-31T07:57:26;17.05;;;8.25;;
34144;SDS011;69555;53.014;8.886;2023-07-31T07:59:51;15.35;;;8.20;;
34144;SDS011;69555;53.014;8.886;2023-07-31T08:02:17;15.18;;;7.30;;
34144;SDS011;69555;53.014;8.886;2023-07-31T08:04:42;18.80;;;9.27;;
34144;SDS011;69555;53.014;8.886;2023-07-31T08:07:10;21.95;;;9.65;;
34144;SDS011;69555;53.014;8.886;2023-07-31T08:09:36;23.35;;;9.60;;
34144;SDS011;69555;53.014;8.886;2023-07-31T08:12:01;17.98;;;9.73;;
34144;SDS011;69555;53.014;8.886;2023-07-31T08:14:28;23.00;;;10.75;;
34144;SDS011;69555;53.014;8.886;2023-07-31T08:16:53;26.02;;;10.90;;
34144;SDS011;69555;53.014;8.886;2023-07-31T08:19:20;27.35;;;10.43;;
34144;SDS011;69555;53.014;8.886;2023-07-31T08:21:46;20.20;;;10.68;;
34144;SDS011;69555;53.014;8.886;2023-07-31T08:24:12;24.20;;;10.32;;
34144;SDS011;69555;53.014;8.886;2023-07-31T08:26:39;26.02;;;10.88;;
34144;SDS011;69555;53.014;8.886;2023-07-31T08:29:06;23.83;;;10.13;;
34144;SDS011;69555;53.014;8.886;2023-07-31T08:31:32;28.77;;;12.00;;
34144;SDS011;69555;53.014;8.886;2023-07-31T08:33:59;27.52;;;12.70;;
34144;SDS011;69555;53.014;8.886;2023-07-31T08:36:26;31.83;;;11.48;;
34144;SDS011;69555;53.014;8.886;2023-07-31T08:38:52;26.55;;;10.50;;
34144;SDS011;69555;53.014;8.886;2023-07-31T08:41:19;23.52;;;11.18;;
34144;SDS011;69555;53.014;8.886;2023-07-31T08:43:46;29.92;;;11.68;;
34144;SDS011;69555;53.014;8.886;2023-07-31T08:46:15;27.63;;;12.03;;
34144;SDS011;69555;53.014;8.886;2023-07-31T08:48:42;24.80;;;10.13;;
34144;SDS011;69555;53.014;8.886;2023-07-31T08:51:08;26.92;;;10.07;;
34144;SDS011;69555;53.014;8.886;2023-07-31T08:53:35;31.27;;;10.43;;
34144;SDS011;69555;53.014;8.886;2023-07-31T08:56:02;29.20;;;11.57;;
34144;SDS011;69555;53.014;8.886;2023-07-31T08:58:30;26.23;;;10.20;;
34144;SDS011;69555;53.014;8.886;2023-07-31T09:01:01;22.53;;;10.33;;
34144;SDS011;69555;53.014;8.886;2023-07-31T09:03:33;24.85;;;8.57;;
34144;SDS011;69555;53.014;8.886;2023-07-31T09:05:59;19.58;;;9.18;;
34144;SDS011;69555;53.014;8.886;2023-07-31T09:08:25;25.08;;;9.35;;
34144;SDS011;69555;53.014;8.886;2023-07-31T09:10:54;17.38;;;7.97;;
34144;SDS011;69555;53.014;8.886;2023-07-31T09:13:24;24.92;;;9.27;;
34144;SDS011;69555;53.014;8.886;2023-07-31T09:15:50;16.52;;;8.18;;
34144;SDS011;69555;53.014;8.886;2023-07-31T09:18:15;22.77;;;8.15;;
34144;SDS011;69555;53.014;8.886;2023-07-31T09:20:44;21.48;;;6.85;;
34144;SDS011;69555;53.014;8.886;2023-07-31T09:23:10;8.30;;;6.25;;
34144;SDS011;69555;53.014;8.886;2023-07-31T09:25:37;14.20;;;6.88;;
34144;SDS011;69555;53.014;8.886;2023-07-31T09:28:05;13.18;;;5.85;;
34144;SDS011;69555;53.014;8.886;2023-07-31T09:30:54;13.13;;;5.90;;
34144;SDS011;69555;53.014;8.886;2023-07-31T09:33:19;15.95;;;5.55;;
34144;SDS011;69555;53.014;8.886;2023-07-31T09:35:46;11.55;;;5.28;;
34144;SDS011;69555;53.014;8.886;2023-07-31T09:38:14;9.93;;;5.55;;
34144;SDS011;69555;53.014;8.886;2023-07-31T09:40:42;12.05;;;5.53;;
34144;SDS011;69555;53.014;8.886;2023-07-31T09:43:14;13.73;;;5.32;;
34144;SDS011;69555;53.014;8.886;2023-07-31T09:45:44;13.00;;;5.15;;
34144;SDS011;69555;53.014;8.886;2023-07-31T09:48:17;8.45;;;4.53;;
34144;SDS011;69555;53.014;8.886;2023-07-31T09:50:45;7.68;;;4.18;;
34144;SDS011;69555;53.014;8.886;2023-07-31T09:53:13;10.87;;;5.23;;
34144;SDS011;69555;53.014;8.886;2023-07-31T09:55:42;8.07;;;5.15;;
34144;SDS011;69555;53.014;8.886;2023-07-31T09:58:10;10.38;;;4.97;;
34144;SDS011;69555;53.014;8.886;2023-07-31T10:00:37;8.55;;;3.90;;
34144;SDS011;69555;53.014;8.886;2023-07-31T10:03:06;9.30;;;3.63;;
34144;SDS011;69555;53.014;8.886;2023-07-31T10:08:12;11.40;;;4.00;;
34144;SDS011;69555;53.014;8.886;2023-07-31T10:10:41;9.43;;;3.47;;
34144;SDS011;69555;53.014;8.886;2023-07-31T10:13:08;7.50;;;3.70;;
34144;SDS011;69555;53.014;8.886;2023-07-31T10:15:36;10.63;;;3.20;;
34144;SDS011;69555;53.014;8.886;2023-07-31T10:18:02;6.82;;;3.28;;
34144;SDS011;69555;53.014;8.886;2023-07-31T10:20:32;10.95;;;3.20;;
34144;SDS011;69555;53.014;8.886;2023-07-31T10:22:59;8.30;;;2.95;;
34144;SDS011;69555;53.014;8.886;2023-07-31T10:25:27;5.80;;;3.08;;
34144;SDS011;69555;53.014;8.886;2023-07-31T10:27:53;5.13;;;2.38;;
34144;SDS011;69555;53.014;8.886;2023-07-31T10:30:20;7.50;;;2.70;;
34144;SDS011;69555;53.014;8.886;2023-07-31T10:32:50;8.68;;;2.95;;
34144;SDS011;69555;53.014;8.886;2023-07-31T10:35:17;10.25;;;3.10;;
34144;SDS011;69555;53.014;8.886;2023-07-31T10:37:43;4.75;;;2.45;;
34144;SDS011;69555;53.014;8.886;2023-07-31T10:40:13;5.55;;;2.58;;
34144;SDS011;69555;53.014;8.886;2023-07-31T10:42:49;7.28;;;2.00;;
34144;SDS011;69555;53.014;8.886;2023-07-31T10:45:23;2.97;;;1.63;;
34144;SDS011;69555;53.014;8.886;2023-07-31T10:47:51;4.32;;;2.03;;
34144;SDS011;69555;53.014;8.886;2023-07-31T10:50:24;3.40;;;1.80;;
34144;SDS011;69555;53.014;8.886;2023-07-31T10:52:50;4.00;;;2.05;;
34144;SDS011;69555;53.014;8.886;2023-07-31T10:55:33;4.43;;;1.42;;
34144;SDS011;69555;53.014;8.886;2023-07-31T10:58:09;1.27;;;0.98;;
34144;SDS011;69555;53.014;8.886;2023-07-31T11:00:37;1.65;;;1.00;;
34144;SDS011;69555;53.014;8.886;2023-07-31T11:03:11;1.35;;;0.80;;
34144;SDS011;69555;53.014;8.886;2023-07-31T11:05:41;1.20;;;1.02;;
34144;SDS011;69555;53.014;8.886;2023-07-31T11:08:10;2.65;;;1.13;;
34144;SDS011;69555;53.014;8.886;2023-07-31T11:10:39;1.75;;;0.95;;
34144;SDS011;69555;53.014;8.886;2023-07-31T11:13:05;7.53;;;1.15;;
34144;SDS011;69555;53.014;8.886;2023-07-31T11:15:32;1.30;;;1.00;;
34144;SDS011;69555;53.014;8.886;2023-07-31T11:17:59;1.25;;;1.15;;
34144;SDS011;69555;53.014;8.886;2023-07-31T11:20:29;0.90;;;0.90;;
34144;SDS011;69555;53.014;8.886;2023-07-31T11:23:00;0.93;;;0.82;;
34144;SDS011;69555;53.014;8.886;2023-07-31T11:25:29;0.77;;;0.50;;
34144;SDS011;69555;53.014;8.886;2023-07-31T11:27:58;0.93;;;0.75;;
34144;SDS011;69555;53.014;8.886;2023-07-31T11:30:30;2.17;;;1.48;;
34144;SDS011;69555;53.014;8.886;2023-07-31T11:32:57;1.48;;;0.85;;
34144;SDS011;69555;53.014;8.886;2023-07-31T11:35:24;1.88;;;1.17;;
34144;SDS011;69555;53.014;8.886;2023-07-31T11:37:51;0.80;;;0.63;;
34144;SDS011;69555;53.014;8.886;2023-07-31T11:40:18;0.95;;;0.85;;
34144;SDS011;69555;53.014;8.886;2023-07-31T11:42:46;1.40;;;0.50;;
34144;SDS011;69555;53.014;8.886;2023-07-31T11:45:13;1.40;;;0.40;;
34144;SDS011;69555;53.014;8.886;2023-07-31T11:47:40;0.45;;;0.45;;
34144;SDS011;69555;53.014;8.886;2023-07-31T11:50:10;2.33;;;0.60;;
34144;SDS011;69555;53.014;8.886;2023-07-31T11:52:44;0.57;;;0.57;;
34144;SDS011;69555;53.014;8.886;2023-07-31T11:55:12;0.63;;;0.63;;
34144;SDS011;69555;53.014;8.886;2023-07-31T11:57:38;0.50;;;0.47;;
34144;SDS011;69555;53.014;8.886;2023-07-31T12:00:07;1.00;;;0.50;;
34144;SDS011;69555;53.014;8.886;2023-07-31T12:02:37;2.47;;;0.50;;
34144;SDS011;69555;53.014;8.886;2023-07-31T12:05:06;1.43;;;0.70;;
34144;SDS011;69555;53.014;8.886;2023-07-31T12:08:09;1.38;;;0.50;;
34144;SDS011;69555;53.014;8.886;2023-07-31T12:10:33;0.80;;;0.50;;
34144;SDS011;69555;53.014;8.886;2023-07-31T12:13:03;1.17;;;0.38;;
34144;SDS011;69555;53.014;8.886;2023-07-31T12:15:33;0.45;;;0.45;;
34144;SDS011;69555;53.014;8.886;2023-07-31T12:18:19;2.75;;;0.63;;
34144;SDS011;69555;53.014;8.886;2023-07-31T12:20:48;0.52;;;0.52;;
34144;SDS011;69555;53.014;8.886;2023-07-31T12:23:19;0.50;;;0.50;;
34144;SDS011;69555;53.014;8.886;2023-07-31T12:26:02;0.50;;;0.50;;
34144;SDS011;69555;53.014;8.886;2023-07-31T12:28:29;1.45;;;0.50;;
34144;SDS011;69555;53.014;8.886;2023-07-31T12:30:59;1.48;;;0.50;;
34144;SDS011;69555;53.014;8.886;2023-07-31T12:33:30;1.20;;;0.80;;
34144;SDS011;69555;53.014;8.886;2023-07-31T12:35:57;0.60;;;0.60;;
34144;SDS011;69555;53.014;8.886;2023-07-31T12:38:23;0.65;;;0.65;;
34144;SDS011;69555;53.014;8.886;2023-07-31T12:40:48;0.90;;;0.73;;
34144;SDS011;69555;53.014;8.886;2023-07-31T12:43:14;2.45;;;0.70;;
34144;SDS011;69555;53.014;8.886;2023-07-31T12:45:39;1.40;;;0.80;;
34144;SDS011;69555;53.014;8.886;2023-07-31T12:48:05;4.05;;;2.22;;
34144;SDS011;69555;53.014;8.886;2023-07-31T12:50:30;6.57;;;4.50;;
34144;SDS011;69555;53.014;8.886;2023-07-31T12:52:56;3.10;;;1.10;;
34144;SDS011;69555;53.014;8.886;2023-07-31T12:55:22;1.60;;;1.10;;
34144;SDS011;69555;53.014;8.886;2023-07-31T12:57:48;2.05;;;1.00;;
34144;SDS011;69555;53.014;8.886;2023-07-31T13:00:14;1.35;;;0.90;;
34144;SDS011;69555;53.014;8.886;2023-07-31T13:02:40;1.70;;;1.10;;
34144;SDS011;69555;53.014;8.886;2023-07-31T13:05:05;1.33;;;0.95;;
34144;SDS011;69555;53.014;8.886;2023-07-31T13:07:31;1.25;;;1.10;;
34144;SDS011;69555;53.014;8.886;2023-07-31T13:09:56;2.67;;;1.20;;
34144;SDS011;69555;53.014;8.886;2023-07-31T13:12:22;2.83;;;1.45;;
34144;SDS011;69555;53.014;8.886;2023-07-31T13:14:47;1.77;;;1.33;;
34144;SDS011;69555;53.014;8.886;2023-07-31T13:17:13;6.20;;;1.20;;
34144;SDS011;69555;53.014;8.886;2023-07-31T13:19:38;3.35;;;1.55;;
34144;SDS011;69555;53.014;8.886;2023-07-31T13:22:03;1.85;;;1.63;;
34144;SDS011;69555;53.014;8.886;2023-07-31T13:24:29;2.92;;;1.60;;
34144;SDS011;69555;53.014;8.886;2023-07-31T13:26:55;3.60;;;2.10;;
34144;SDS011;69555;53.014;8.886;2023-07-31T13:29:21;7.75;;;2.42;;
34144;SDS011;69555;53.014;8.886;2023-07-31T13:31:47;2.55;;;2.30;;
34144;SDS011;69555;53.014;8.886;2023-07-31T13:34:13;2.55;;;2.10;;
34144;SDS011;69555;53.014;8.886;2023-07-31T13:36:38;3.70;;;2.15;;
34144;SDS011;69555;53.014;8.886;2023-07-31T13:39:03;4.90;;;4.07;;
34144;SDS011;69555;53.014;8.886;2023-07-31T13:41:29;17.77;;;10.93;;
34144;SDS011;69555;53.014;8.886;2023-07-31T13:43:54;7.63;;;4.55;;
34144;SDS011;69555;53.014;8.886;2023-07-31T13:46:19;4.70;;;3.22;;
34144;SDS011;69555;53.014;8.886;2023-07-31T13:48:45;3.20;;;2.40;;
34144;SDS011;69555;53.014;8.886;2023-07-31T13:51:10;4.15;;;2.63;;
34144;SDS011;69555;53.014;8.886;2023-07-31T13:53:36;4.22;;;2.70;;
34144;SDS011;69555;53.014;8.886;2023-07-31T13:56:01;3.33;;;2.00;;
34144;SDS011;69555;53.014;8.886;2023-07-31T13:58:27;2.85;;;2.30;;
34144;SDS011;69555;53.014;8.886;2023-07-31T14:00:52;3.95;;;2.42;;
34144;SDS011;69555;53.014;8.886;2023-07-31T14:03:17;3.42;;;2.58;;
34144;SDS011;69555;53.014;8.886;2023-07-31T14:05:43;3.42;;;2.67;;
34144;SDS011;69555;53.014;8.886;2023-07-31T14:08:08;3.78;;;2.33;;
34144;SDS011;69555;53.014;8.886;2023-07-31T14:10:33;3.75;;;3.30;;
34144;SDS011;69555;53.014;8.886;2023-07-31T14:12:59;8.93;;;3.63;;
34144;SDS011;69555;53.014;8.886;2023-07-31T14:15:24;5.40;;;3.35;;
34144;SDS011;69555;53.014;8.886;2023-07-31T14:17:49;4.85;;;3.78;;
34144;SDS011;69555;53.014;8.886;2023-07-31T14:20:15;4.25;;;3.63;;
34144;SDS011;69555;53.014;8.886;2023-07-31T14:22:40;4.38;;;3.45;;
34144;SDS011;69555;53.014;8.886;2023-07-31T14:25:06;5.93;;;4.18;;
34144;SDS011;69555;53.014;8.886;2023-07-31T14:27:32;6.07;;;3.70;;
34144;SDS011;69555;53.014;8.886;2023-07-31T14:29:57;4.45;;;3.15;;
34144;SDS011;69555;53.014;8.886;2023-07-31T14:32:23;4.55;;;3.60;;
34144;SDS011;69555;53.014;8.886;2023-07-31T14:34:50;3.75;;;3.45;;
34144;SDS011;69555;53.014;8.886;2023-07-31T14:37:15;5.75;;;4.10;;
34144;SDS011;69555;53.014;8.886;2023-07-31T14:39:41;5.97;;;4.07;;
34144;SDS011;69555;53.014;8.886;2023-07-31T14:42:06;7.32;;;4.50;;
34144;SDS011;69555;53.014;8.886;2023-07-31T14:44:32;6.72;;;3.83;;
34144;SDS011;69555;53.014;8.886;2023-07-31T14:46:57;6.95;;;4.53;;
34144;SDS011;69555;53.014;8.886;2023-07-31T14:49:22;5.07;;;4.53;;
34144;SDS011;69555;53.014;8.886;2023-07-31T14:51:48;5.40;;;4.57;;
34144;SDS011;69555;53.014;8.886;2023-07-31T14:54:14;7.47;;;4.32;;
34144;SDS011;69555;53.014;8.886;2023-07-31T14:56:39;8.38;;;4.15;;